Limaburg, Kentucky
Current Conditions -  °F | °C
As of 12:52 PM on Thursday 27 Nov 2014 (Local Time) from KCVG Reporting Station
Light Snow Light Snow  
Wind Chill: 23°   Ceiling: 3200
Heat Index: 33°   Visibility: 8mi
Dew Point: 19°   Wind: 14mph
Humidity: 56%   Direction: 290°WNW
Pressure: 30.27"   Gusts: 28mph
Location:  39.0238°N, 84.7647°W
Report Text: KCVG 271752Z 29012G24KT 8SM -SN SCT027 BKN032 OVC050 01/M07 A3027 RMK AO2 SLP259 SNB39 931000 P0000 60000 T00061072 10017 21017 50008
Loading
Personal Weather Stations






























Interactive Weather Map New forecast layout! Learn more

10-Day Weather Forecast

Advertisements
Track Severe Weather on mobile